Time;durP1;ratioP1;P1;durP2;ratioP2;P2;SDS_P1;SDS_P2;PMS_P1;PMS_P2;Temp;Humidity;BMP_temperature;BMP_pressure;BME280_temperature;BME280_humidity;BME280_pressure;Samples;Min_cycle;Max_cycle;Signal;HPM_P1;HPM_P2
2022/12/13 00:00:00;;;;;;;35.00;18.40;;;-4.80;99.90;;;;;;5053166;28;20214;-60
2022/12/13 00:02:27;;;;;;;49.67;23.23;;;-4.80;99.90;;;;;;5052967;28;20670;-60
2022/12/13 00:04:54;;;;;;;41.33;20.97;;;-4.80;99.90;;;;;;5051823;28;20225;-60
2022/12/13 00:07:20;;;;;;;27.53;15.97;;;-4.80;99.90;;;;;;5052933;28;20225;-60
2022/12/13 00:09:48;;;;;;;26.87;16.07;;;-4.80;99.90;;;;;;5052758;28;20689;-61
2022/12/13 00:12:16;;;;;;;28.03;15.87;;;-5.00;99.90;;;;;;5052642;28;20201;-60
2022/12/13 00:14:42;;;;;;;25.50;15.67;;;-4.90;99.90;;;;;;5051949;28;20291;-60
2022/12/13 00:17:09;;;;;;;28.03;15.80;;;-4.70;99.90;;;;;;5052660;28;20253;-60
2022/12/13 00:19:36;;;;;;;26.23;15.93;;;-4.60;99.90;;;;;;5052728;28;20205;-60
2022/12/13 00:22:02;;;;;;;24.87;15.00;;;-4.40;99.90;;;;;;5052544;28;20209;-60
2022/12/13 00:24:29;;;;;;;28.13;16.70;;;-4.40;99.90;;;;;;5051804;28;20723;-60
2022/12/13 00:26:57;;;;;;;25.93;16.27;;;-4.50;99.90;;;;;;5052174;28;20225;-60
2022/12/13 00:29:24;;;;;;;28.47;17.43;;;-4.50;99.90;;;;;;5052627;28;20211;-60
2022/12/13 00:31:51;;;;;;;27.07;15.97;;;-4.50;99.90;;;;;;5052635;28;20217;-60
2022/12/13 00:34:18;;;;;;;24.23;15.40;;;-4.40;99.90;;;;;;5051791;28;20197;-61
2022/12/13 00:36:45;;;;;;;26.63;16.63;;;-4.50;99.90;;;;;;5052150;28;20234;-60
2022/12/13 00:39:13;;;;;;;27.37;16.10;;;-4.40;99.90;;;;;;5052406;28;20212;-60
2022/12/13 00:41:40;;;;;;;24.50;15.60;;;-4.40;99.90;;;;;;5052121;28;20216;-60
2022/12/13 00:44:10;;;;;;;25.97;15.70;;;-4.30;99.90;;;;;;5051608;28;20222;-60
2022/12/13 00:46:37;;;;;;;27.37;16.27;;;-4.30;99.90;;;;;;5052343;28;20225;-60
2022/12/13 00:49:04;;;;;;;24.90;15.93;;;-4.20;99.90;;;;;;5052153;28;20206;-60
2022/12/13 00:51:33;;;;;;;22.93;15.93;;;-4.20;99.90;;;;;;5052008;28;20206;-60
2022/12/13 00:54:01;;;;;;;26.20;16.40;;;-4.10;99.90;;;;;;5051233;28;20213;-61
2022/12/13 00:56:29;;;;;;;27.77;17.00;;;-4.10;99.90;;;;;;5051689;28;20222;-60
2022/12/13 00:58:56;;;;;;;25.23;16.27;;;-4.10;99.90;;;;;;5051987;28;20210;-60
2022/12/13 01:01:27;;;;;;;29.63;16.73;;;-4.00;99.90;;;;;;5051739;28;20205;-60
2022/12/13 01:03:55;;;;;;;26.77;17.47;;;-4.00;99.90;;;;;;5051032;28;20228;-60
2022/12/13 01:06:26;;;;;;;25.43;16.33;;;-4.00;99.90;;;;;;5051701;28;20291;-60
2022/12/13 01:08:53;;;;;;;24.13;15.87;;;-4.00;99.90;;;;;;5051670;28;20285;-60
2022/12/13 01:11:20;;;;;;;28.07;15.80;;;-4.10;99.90;;;;;;5051581;28;20669;-60
2022/12/13 01:13:46;;;;;;;30.60;16.83;;;-4.10;99.90;;;;;;5051158;28;20197;-60
2022/12/13 01:16:14;;;;;;;24.17;15.53;;;-4.10;99.90;;;;;;5051143;28;20252;-60
2022/12/13 01:18:42;;;;;;;25.57;15.97;;;-4.20;99.90;;;;;;5051607;28;20213;-60
2022/12/13 01:21:12;;;;;;;27.90;16.50;;;-4.30;99.90;;;;;;5051646;28;20228;-60
2022/12/13 01:23:39;;;;;;;25.27;16.03;;;-4.30;99.90;;;;;;5051081;28;20260;-60
2022/12/13 01:26:08;;;;;;;29.33;16.60;;;-4.30;99.90;;;;;;5051573;28;20225;-60
2022/12/13 01:28:35;;;;;;;27.13;16.57;;;-4.30;99.90;;;;;;5051613;28;20212;-60
2022/12/13 01:31:05;;;;;;;25.77;15.70;;;-4.30;99.90;;;;;;5051515;28;20209;-60
2022/12/13 01:33:32;;;;;;;28.07;16.00;;;-4.40;99.90;;;;;;5050734;28;20461;-60
2022/12/13 01:36:03;;;;;;;26.30;15.40;;;-4.50;99.90;;;;;;5075175;22;20225;-64
2022/12/13 01:38:30;;;;;;;27.57;15.90;;;-4.60;99.90;;;;;;5032469;28;20205;-65
2022/12/13 01:40:57;;;;;;;26.37;15.43;;;-4.50;99.90;;;;;;5032729;28;20228;-65
2022/12/13 01:43:26;;;;;;;26.27;15.07;;;-4.50;99.90;;;;;;5031869;28;20206;-65
2022/12/13 01:45:53;;;;;;;24.33;15.43;;;-4.40;99.90;;;;;;5032507;28;20226;-65
2022/12/13 01:48:24;;;;;;;26.13;16.50;;;-4.40;99.90;;;;;;5032163;28;20212;-65
2022/12/13 01:50:55;;;;;;;27.83;15.70;;;-4.40;99.90;;;;;;5032005;28;20225;-65
2022/12/13 01:53:27;;;;;;;26.23;15.90;;;-4.40;99.90;;;;;;5031229;28;20205;-64
2022/12/13 01:55:57;;;;;;;25.23;15.00;;;-4.40;99.90;;;;;;5031782;28;20606;-65
2022/12/13 01:58:24;;;;;;;24.13;14.23;;;-4.40;99.90;;;;;;5032014;28;20226;-64
2022/12/13 02:00:52;;;;;;;23.13;14.53;;;-4.40;99.90;;;;;;5031593;28;20214;-65
2022/12/13 02:03:21;;;;;;;25.60;16.07;;;-4.40;99.90;;;;;;5031529;28;20689;-65
2022/12/13 02:05:54;;;;;;;23.53;14.97;;;-4.50;99.90;;;;;;5031501;28;20793;-65
2022/12/13 02:08:24;;;;;;;22.87;14.93;;;-4.50;99.90;;;;;;5031389;28;20555;-65
2022/12/13 02:10:51;;;;;;;25.17;15.27;;;-4.50;99.90;;;;;;5031703;28;20341;-65
2022/12/13 02:13:17;;;;;;;25.73;15.13;;;-4.50;99.90;;;;;;5031591;28;20206;-64
2022/12/13 02:15:52;;;;;;;26.77;15.20;;;-4.60;99.90;;;;;;5030756;28;20698;-65
2022/12/13 02:18:33;;;;;;;26.77;15.47;;;-4.70;99.90;;;;;;5031853;28;20206;-64
2022/12/13 02:21:23;;;;;;;22.93;15.00;;;-4.70;99.90;;;;;;5031626;28;20630;-65
2022/12/13 02:24:26;;;;;;;25.27;15.40;;;-4.60;99.90;;;;;;5030945;28;20592;-65
2022/12/13 02:27:18;;;;;;;26.40;15.17;;;-4.60;99.90;;;;;;5031580;28;20238;-65
2022/12/13 02:30:21;;;;;;;25.07;15.13;;;-4.60;99.90;;;;;;5035011;28;20206;-65
2022/12/13 02:33:11;;;;;;;25.57;15.53;;;-4.60;99.90;;;;;;5035291;28;20209;-65
2022/12/13 02:35:42;;;;;;;25.73;15.13;;;-4.60;99.90;;;;;;5034243;28;20209;-65
2022/12/13 02:38:14;;;;;;;25.60;14.90;;;-4.70;99.90;;;;;;5034958;28;20392;-65
2022/12/13 02:40:46;;;;;;;23.13;14.13;;;-4.70;99.90;;;;;;5035209;28;20210;-65
2022/12/13 02:43:18;;;;;;;26.70;14.80;;;-4.70;99.90;;;;;;5034927;28;20697;-64
2022/12/13 02:45:47;;;;;;;23.70;14.47;;;-4.80;99.90;;;;;;5034206;28;20690;-64
2022/12/13 02:48:21;;;;;;;24.70;15.07;;;-4.80;99.90;;;;;;5034869;28;20217;-65
2022/12/13 02:50:51;;;;;;;23.07;14.50;;;-4.80;99.90;;;;;;5034727;28;20581;-65
2022/12/13 02:53:20;;;;;;;25.83;16.23;;;-4.70;99.90;;;;;;5035145;28;20210;-65
2022/12/13 02:55:47;;;;;;;28.40;15.93;;;-4.70;99.90;;;;;;5034406;28;20230;-65
2022/12/13 02:58:18;;;;;;;26.87;16.37;;;-4.60;99.90;;;;;;5034965;28;20206;-65
2022/12/13 03:00:54;;;;;;;28.40;16.33;;;-4.50;99.90;;;;;;5034768;28;20670;-65
2022/12/13 03:03:32;;;;;;;30.87;15.87;;;-4.50;99.90;;;;;;5034953;28;20210;-65
2022/12/13 03:06:31;;;;;;;29.47;16.67;;;-4.50;99.90;;;;;;5034988;28;20578;-65
2022/12/13 03:09:10;;;;;;;32.77;17.73;;;-4.50;99.90;;;;;;5034723;28;20209;-65
2022/12/13 03:14:44;;;;;;;28.00;16.73;;;-4.50;99.90;;;;;;5035305;28;20196;-65
2022/12/13 03:17:16;;;;;;;26.57;15.83;;;-4.50;99.90;;;;;;5039012;28;20230;-65
2022/12/13 03:19:45;;;;;;;26.80;15.73;;;-4.60;99.90;;;;;;5035558;28;20210;-65
2022/12/13 03:22:11;;;;;;;25.10;15.37;;;-4.60;99.90;;;;;;5034540;28;20212;-64
2022/12/13 03:24:38;;;;;;;28.83;16.53;;;-4.60;99.90;;;;;;5034282;28;20288;-65
2022/12/13 03:27:05;;;;;;;25.97;16.20;;;-4.70;99.90;;;;;;5034417;28;20229;-65
2022/12/13 03:29:32;;;;;;;29.60;17.13;;;-4.70;99.90;;;;;;5034360;28;20289;-66
2022/12/13 03:31:59;;;;;;;28.00;16.57;;;-4.70;99.90;;;;;;5034406;28;20202;-65
2022/12/13 03:34:25;;;;;;;27.37;16.17;;;-4.60;99.90;;;;;;5033560;28;20205;-65
2022/12/13 03:36:54;;;;;;;24.47;15.57;;;-4.70;99.90;;;;;;5034121;28;20237;-65
2022/12/13 03:39:22;;;;;;;26.43;15.17;;;-4.70;99.90;;;;;;5034158;28;20220;-66
2022/12/13 03:41:50;;;;;;;24.23;15.00;;;-4.80;99.90;;;;;;5034400;28;20202;-65
2022/12/13 03:44:17;;;;;;;27.53;15.93;;;-4.80;99.90;;;;;;5033771;28;20253;-65
2022/12/13 03:46:44;;;;;;;24.03;15.17;;;-4.90;99.90;;;;;;5034294;28;20231;-65
2022/12/13 03:49:11;;;;;;;24.37;14.87;;;-4.90;99.90;;;;;;5034057;28;20210;-65
2022/12/13 03:51:38;;;;;;;24.03;15.03;;;-5.00;99.90;;;;;;5034359;28;20213;-66
2022/12/13 03:54:06;;;;;;;23.50;15.03;;;-5.10;99.90;;;;;;5034575;28;20206;-66
2022/12/13 03:56:33;;;;;;;23.53;14.37;;;-5.20;99.90;;;;;;5034836;28;20348;-65
2022/12/13 03:59:01;;;;;;;21.93;13.60;;;-5.30;99.90;;;;;;5036783;28;20218;-66
2022/12/13 04:01:28;;;;;;;23.27;14.30;;;-5.50;99.90;;;;;;5047744;28;20206;-64
2022/12/13 04:03:54;;;;;;;26.93;15.07;;;-5.50;99.90;;;;;;5043656;28;20297;-66
2022/12/13 04:06:21;;;;;;;23.87;14.20;;;-5.50;99.90;;;;;;5036842;28;20321;-65
2022/12/13 04:08:48;;;;;;;25.80;14.03;;;-5.60;99.90;;;;;;5042798;28;20213;-65
2022/12/13 04:14:00;;;;;;;22.30;13.43;;;-5.70;99.90;;;;;;5037217;28;20209;-64
2022/12/13 04:16:27;;;;;;;23.17;13.60;;;-5.70;99.90;;;;;;5035330;28;20227;-65
2022/12/13 04:18:54;;;;;;;22.47;14.27;;;-5.60;99.90;;;;;;5033873;28;20210;-64
2022/12/13 04:21:20;;;;;;;22.90;14.07;;;-5.50;99.90;;;;;;5033422;28;20206;-64
2022/12/13 04:23:47;;;;;;;23.60;14.40;;;-5.40;99.90;;;;;;5032430;28;20701;-64
2022/12/13 04:26:15;;;;;;;25.53;14.90;;;-5.20;99.90;;;;;;5033922;28;20226;-64
2022/12/13 04:28:42;;;;;;;23.97;14.73;;;-5.10;99.90;;;;;;5033105;28;20584;-63
2022/12/13 04:31:09;;;;;;;23.67;14.43;;;-5.10;99.90;;;;;;5033495;28;20213;-63
2022/12/13 04:33:35;;;;;;;20.97;13.70;;;-5.00;99.90;;;;;;5033697;28;20333;-63
2022/12/13 04:36:02;;;;;;;25.00;14.37;;;-5.00;99.90;;;;;;5032607;28;20226;-65
2022/12/13 04:38:29;;;;;;;24.93;14.87;;;-5.00;99.90;;;;;;5032869;28;20206;-63
2022/12/13 04:41:05;;;;;;;26.63;15.07;;;-5.00;99.90;;;;;;5032825;28;20221;-64
2022/12/13 04:43:33;;;;;;;25.40;14.37;;;-4.90;99.90;;;;;;5032430;28;20686;-64
2022/12/13 04:45:59;;;;;;;29.30;17.37;;;-4.90;99.90;;;;;;5031952;28;20230;-63
2022/12/13 04:48:26;;;;;;;26.93;17.13;;;-4.90;99.90;;;;;;5032416;28;20212;-63
2022/12/13 04:50:53;;;;;;;30.87;17.70;;;-5.00;99.90;;;;;;5032310;28;20242;-63
2022/12/13 04:53:20;;;;;;;30.93;18.90;;;-4.90;99.90;;;;;;5032010;28;20675;-65
2022/12/13 04:55:47;;;;;;;31.17;18.37;;;-4.90;99.90;;;;;;5031704;28;20241;-64
2022/12/13 04:58:13;;;;;;;26.23;17.63;;;-4.90;99.90;;;;;;5032720;28;20202;-63
2022/12/13 05:00:42;;;;;;;28.57;18.17;;;-4.90;99.90;;;;;;5032535;28;20213;-64
2022/12/13 05:03:08;;;;;;;27.13;17.40;;;-5.00;99.90;;;;;;5032254;28;20206;-62
2022/12/13 05:05:38;;;;;;;27.83;17.10;;;-4.90;99.90;;;;;;5031371;28;20223;-65
2022/12/13 05:08:05;;;;;;;27.03;15.67;;;-4.90;99.90;;;;;;5032466;28;20590;-65
2022/12/13 05:10:32;;;;;;;26.53;15.10;;;-4.80;99.90;;;;;;5032026;28;20209;-64
2022/12/13 05:12:59;;;;;;;23.43;13.80;;;-4.80;99.90;;;;;;5032088;28;20593;-64
2022/12/13 05:15:26;;;;;;;23.30;14.00;;;-4.80;99.90;;;;;;5031405;28;20670;-64
2022/12/13 05:17:54;;;;;;;23.17;14.07;;;-4.80;99.90;;;;;;5032028;28;20681;-64
2022/12/13 05:20:21;;;;;;;25.70;14.13;;;-4.80;99.90;;;;;;5032089;28;20213;-64
2022/12/13 05:22:48;;;;;;;24.73;14.90;;;-4.70;99.90;;;;;;5031941;28;20206;-64
2022/12/13 05:25:14;;;;;;;22.27;14.43;;;-4.80;99.90;;;;;;5031767;28;20234;-64
2022/12/13 05:27:41;;;;;;;23.40;14.63;;;-4.70;99.90;;;;;;5032131;28;20230;-65
2022/12/13 05:30:09;;;;;;;27.90;15.27;;;-4.70;99.90;;;;;;5032041;28;20202;-64
2022/12/13 05:32:37;;;;;;;24.43;13.90;;;-4.70;99.90;;;;;;5031968;28;20203;-65
2022/12/13 05:35:06;;;;;;;22.43;13.97;;;-4.70;99.90;;;;;;5031209;28;20198;-63
2022/12/13 05:37:33;;;;;;;26.17;13.83;;;-4.70;99.90;;;;;;5031633;28;20233;-65
2022/12/13 05:40:00;;;;;;;27.47;15.60;;;-4.70;99.90;;;;;;5032062;28;20221;-66
2022/12/13 05:42:26;;;;;;;23.33;13.90;;;-4.70;99.90;;;;;;5032017;28;20207;-63
2022/12/13 05:44:53;;;;;;;21.77;13.67;;;-4.70;99.90;;;;;;5031591;28;20230;-65
2022/12/13 05:47:20;;;;;;;34.33;21.77;;;-4.80;99.90;;;;;;5031635;28;20718;-64
2022/12/13 05:49:47;;;;;;;27.13;16.93;;;-4.80;99.90;;;;;;5031578;28;20210;-63
2022/12/13 05:52:17;;;;;;;35.07;19.83;;;-4.80;99.90;;;;;;5031757;28;20665;-65
2022/12/13 05:54:44;;;;;;;28.83;15.73;;;-4.80;99.90;;;;;;5031116;28;20194;-65
2022/12/13 05:57:11;;;;;;;24.63;14.70;;;-4.80;99.90;;;;;;5031594;28;20229;-63
2022/12/13 05:59:38;;;;;;;28.57;15.37;;;-4.80;99.90;;;;;;5031580;28;20264;-63
2022/12/13 06:02:05;;;;;;;28.40;14.87;;;-4.80;99.90;;;;;;5031720;28;20202;-63
2022/12/13 06:04:32;;;;;;;25.83;16.20;;;-4.80;99.90;;;;;;5034902;28;20210;-62
2022/12/13 06:06:58;;;;;;;24.77;14.30;;;-4.80;99.90;;;;;;5036438;28;20717;-64
2022/12/13 06:09:26;;;;;;;28.30;16.47;;;-4.80;99.90;;;;;;5036218;28;20213;-63
2022/12/13 06:11:53;;;;;;;25.27;14.40;;;-4.80;99.90;;;;;;5035769;28;20210;-63
2022/12/13 06:14:20;;;;;;;27.73;15.53;;;-4.80;99.90;;;;;;5034732;28;20674;-63
2022/12/13 06:16:47;;;;;;;23.03;13.97;;;-4.80;99.90;;;;;;5035702;28;20226;-63
2022/12/13 06:19:13;;;;;;;24.43;15.73;;;-4.80;99.90;;;;;;5035181;28;20202;-63
2022/12/13 06:21:40;;;;;;;29.50;17.53;;;-4.90;99.90;;;;;;5035188;28;20209;-63
2022/12/13 06:24:07;;;;;;;27.80;17.80;;;-4.90;99.90;;;;;;5034429;28;20210;-63
2022/12/13 06:26:35;;;;;;;28.93;17.47;;;-4.90;99.90;;;;;;5034820;28;20698;-63
2022/12/13 06:29:02;;;;;;;26.50;16.67;;;-5.00;99.90;;;;;;5035127;28;20264;-63
2022/12/13 06:31:29;;;;;;;28.47;16.93;;;-5.10;99.90;;;;;;5034960;28;20202;-65
2022/12/13 06:33:55;;;;;;;26.40;16.53;;;-5.10;99.90;;;;;;5034369;28;20577;-65
2022/12/13 06:36:22;;;;;;;29.87;16.07;;;-5.10;99.90;;;;;;5035030;28;20245;-64
2022/12/13 06:38:49;;;;;;;29.07;16.73;;;-5.10;99.90;;;;;;5035409;28;20214;-63
2022/12/13 06:41:16;;;;;;;28.70;15.33;;;-5.10;99.90;;;;;;5035469;28;20214;-62
2022/12/13 06:43:46;;;;;;;27.33;15.33;;;-5.10;99.90;;;;;;5035424;28;20643;-64
2022/12/13 06:46:14;;;;;;;26.37;15.27;;;-5.10;99.90;;;;;;5034290;28;20233;-63
2022/12/13 06:48:41;;;;;;;28.43;16.57;;;-5.10;99.90;;;;;;5035576;28;20206;-64
2022/12/13 06:51:08;;;;;;;25.53;15.73;;;-5.10;99.90;;;;;;5034957;28;20706;-63
2022/12/13 06:53:36;;;;;;;27.47;16.17;;;-5.10;99.90;;;;;;5034815;28;20217;-63
2022/12/13 06:56:05;;;;;;;26.73;16.53;;;-5.10;99.90;;;;;;5033871;28;20939;-63
2022/12/13 06:58:32;;;;;;;25.37;15.50;;;-5.00;99.90;;;;;;5034635;28;20210;-61
2022/12/13 07:01:04;;;;;;;28.70;15.73;;;-5.10;99.90;;;;;;5035014;28;20217;-64
2022/12/13 07:03:32;;;;;;;25.13;15.23;;;-5.10;99.90;;;;;;5034764;28;20213;-63
2022/12/13 07:05:59;;;;;;;28.70;15.07;;;-5.10;99.90;;;;;;5033855;28;20234;-63
2022/12/13 07:08:26;;;;;;;25.90;16.00;;;-5.10;99.90;;;;;;5034110;28;20210;-63
2022/12/13 07:10:54;;;;;;;27.40;17.13;;;-5.10;99.90;;;;;;5034405;28;20213;-63
2022/12/13 07:13:21;;;;;;;30.70;16.13;;;-5.00;99.90;;;;;;5034757;28;20214;-63
2022/12/13 07:15:47;;;;;;;26.70;16.10;;;-5.10;99.90;;;;;;5032725;28;20226;-63
2022/12/13 07:18:15;;;;;;;29.53;15.77;;;-5.00;99.90;;;;;;5034485;28;20213;-63
2022/12/13 07:20:43;;;;;;;24.90;15.23;;;-5.00;99.90;;;;;;5034300;28;20206;-63
2022/12/13 07:23:10;;;;;;;33.17;18.33;;;-5.00;99.90;;;;;;5034165;28;20217;-63
2022/12/13 07:25:37;;;;;;;32.47;17.97;;;-5.00;99.90;;;;;;5033095;28;20312;-63
2022/12/13 07:28:06;;;;;;;35.30;19.27;;;-4.90;99.90;;;;;;5034089;28;20222;-61
2022/12/13 07:30:35;;;;;;;29.77;17.10;;;-4.90;99.90;;;;;;5034113;28;20221;-62
2022/12/13 07:33:03;;;;;;;28.07;16.47;;;-4.80;99.90;;;;;;5034092;28;20576;-62
2022/12/13 07:35:32;;;;;;;29.60;16.53;;;-4.70;99.90;;;;;;5033179;28;20210;-62
2022/12/13 07:37:59;;;;;;;27.43;16.47;;;-4.60;99.90;;;;;;5034364;28;20671;-63
2022/12/13 07:40:26;;;;;;;25.83;16.13;;;-4.50;99.90;;;;;;5034184;28;20206;-63
2022/12/13 07:42:54;;;;;;;25.33;15.40;;;-4.50;99.90;;;;;;5033963;28;20217;-63
2022/12/13 07:45:22;;;;;;;27.33;16.13;;;-4.40;99.90;;;;;;5032823;28;20222;-63
2022/12/13 07:47:49;;;;;;;24.73;15.40;;;-4.40;99.90;;;;;;5033597;28;20697;-64
2022/12/13 07:50:16;;;;;;;28.80;15.27;;;-4.30;99.90;;;;;;5034044;28;20206;-63
2022/12/13 07:52:44;;;;;;;27.47;15.97;;;-4.20;99.90;;;;;;5033501;28;20237;-63
2022/12/13 07:55:11;;;;;;;27.00;16.13;;;-4.10;99.90;;;;;;5032862;28;20423;-62
2022/12/13 07:57:38;;;;;;;25.03;15.83;;;-4.00;99.90;;;;;;5033197;28;20227;-62
2022/12/13 08:00:05;;;;;;;28.57;16.20;;;-4.00;99.90;;;;;;5033496;28;20206;-62
2022/12/13 08:02:32;;;;;;;28.77;15.83;;;-3.90;99.90;;;;;;5033471;28;20214;-63
2022/12/13 08:04:58;;;;;;;31.67;16.43;;;-3.80;99.90;;;;;;5032533;28;20233;-62
2022/12/13 08:07:25;;;;;;;28.97;16.37;;;-3.70;99.90;;;;;;5032980;28;20226;-63
2022/12/13 08:09:54;;;;;;;38.13;17.50;;;-3.50;99.90;;;;;;5033025;28;20207;-62
2022/12/13 08:12:21;;;;;;;25.60;15.77;;;-3.50;99.90;;;;;;5033185;28;20681;-62
2022/12/13 08:14:48;;;;;;;29.60;15.90;;;-3.50;99.90;;;;;;5032349;28;20210;-62
2022/12/13 08:17:14;;;;;;;26.17;14.67;;;-3.40;99.90;;;;;;5033086;28;20222;-62
2022/12/13 08:19:41;;;;;;;23.70;14.77;;;-3.30;99.90;;;;;;5032955;28;20213;-62
2022/12/13 08:22:11;;;;;;;24.83;14.80;;;-3.20;99.90;;;;;;5032976;28;20206;-62
2022/12/13 08:24:38;;;;;;;24.07;15.23;;;-3.10;99.90;;;;;;5033081;28;20213;-63
2022/12/13 08:27:06;;;;;;;26.27;16.33;;;-3.00;99.90;;;;;;5033007;28;20237;-62
2022/12/13 08:29:34;;;;;;;26.13;16.00;;;-2.90;99.90;;;;;;5033198;28;20210;-63
2022/12/13 08:32:01;;;;;;;25.67;16.07;;;-2.80;99.90;;;;;;5032761;28;20218;-62
2022/12/13 08:34:28;;;;;;;24.17;15.80;;;-2.80;99.90;;;;;;5031976;28;20210;-62
2022/12/13 08:36:54;;;;;;;28.93;16.03;;;-2.70;99.90;;;;;;5032506;28;20236;-63
2022/12/13 08:39:21;;;;;;;30.87;15.97;;;-2.60;99.90;;;;;;5032548;28;20704;-62
2022/12/13 08:41:48;;;;;;;23.00;14.27;;;-2.50;99.90;;;;;;5032815;28;20206;-60
2022/12/13 08:44:16;;;;;;;25.97;15.77;;;-2.40;99.90;;;;;;5031814;28;20705;-60
2022/12/13 08:46:42;;;;;;;26.17;14.77;;;-2.30;99.90;;;;;;5032282;28;20234;-60
2022/12/13 08:49:10;;;;;;;24.93;14.70;;;-2.30;99.90;;;;;;5032745;28;20217;-62
2022/12/13 08:51:37;;;;;;;26.53;15.20;;;-2.20;99.90;;;;;;5032634;28;20210;-61
2022/12/13 08:54:04;;;;;;;26.17;15.63;;;-2.10;99.90;;;;;;5031668;28;20202;-62
2022/12/13 08:56:31;;;;;;;25.97;15.53;;;-2.00;99.90;;;;;;5032183;28;20713;-61
2022/12/13 08:58:58;;;;;;;26.93;16.13;;;-1.90;99.90;;;;;;5032374;28;20210;-61
2022/12/13 09:01:26;;;;;;;21.77;13.87;;;-1.80;99.90;;;;;;5032207;28;20643;-62
2022/12/13 09:03:52;;;;;;;24.37;14.47;;;-1.70;99.90;;;;;;5032299;28;20213;-60
2022/12/13 09:06:19;;;;;;;26.37;14.03;;;-1.60;99.90;;;;;;5031336;28;20705;-62
2022/12/13 09:08:46;;;;;;;22.37;14.47;;;-1.50;99.90;;;;;;5032285;28;20209;-61
2022/12/13 09:11:13;;;;;;;22.30;13.93;;;-1.40;99.90;;;;;;5032149;28;20206;-61
2022/12/13 09:13:40;;;;;;;20.80;12.47;;;-1.30;99.90;;;;;;5032061;28;20309;-61
2022/12/13 09:16:09;;;;;;;23.73;12.87;;;-1.10;99.90;;;;;;5031179;28;20233;-62
2022/12/13 09:18:37;;;;;;;20.83;12.90;;;-1.00;99.90;;;;;;5032239;28;20206;-61
2022/12/13 09:21:08;;;;;;;19.13;12.60;;;-0.80;99.90;;;;;;5032130;28;20233;-61
2022/12/13 09:23:35;;;;;;;18.17;12.00;;;-0.70;99.90;;;;;;5032057;28;20214;-61
2022/12/13 09:26:02;;;;;;;19.77;12.43;;;-0.60;99.90;;;;;;5031071;28;20229;-61
2022/12/13 09:28:29;;;;;;;22.40;12.80;;;-0.50;99.90;;;;;;5031868;28;20206;-61
2022/12/13 09:30:56;;;;;;;19.93;12.13;;;-0.40;99.90;;;;;;5031732;28;20221;-61
2022/12/13 09:33:23;;;;;;;19.27;12.10;;;-0.30;99.90;;;;;;5031755;28;20696;-61
2022/12/13 09:35:51;;;;;;;21.90;12.63;;;-0.20;99.90;;;;;;5031027;28;20237;-61
2022/12/13 09:38:18;;;;;;;21.87;11.73;;;-0.20;99.90;;;;;;5035312;28;20206;-61
2022/12/13 09:40:49;;;;;;;19.07;10.73;;;-0.10;99.90;;;;;;5038221;28;20206;-61
2022/12/13 09:43:23;;;;;;;16.70;10.60;;;-0.10;99.90;;;;;;5038239;28;20201;-62
2022/12/13 09:45:50;;;;;;;19.47;11.37;;;0.10;99.90;;;;;;5037659;28;20316;-61
2022/12/13 09:48:19;;;;;;;14.70;10.20;;;0.20;99.90;;;;;;5038388;28;20293;-61
2022/12/13 09:50:47;;;;;;;16.43;10.40;;;0.30;99.90;;;;;;5038166;28;20685;-62
2022/12/13 09:53:18;;;;;;;15.93;9.67;;;0.30;99.90;;;;;;5038309;28;20220;-61
2022/12/13 09:55:47;;;;;;;17.60;10.00;;;0.40;99.90;;;;;;5037494;28;20226;-61
2022/12/13 09:58:20;;;;;;;15.83;10.60;;;0.50;99.90;;;;;;5038445;28;20232;-61
2022/12/13 10:00:50;;;;;;;15.47;10.03;;;0.60;99.90;;;;;;5038382;28;20568;-61
2022/12/13 10:03:19;;;;;;;15.37;9.73;;;0.70;99.90;;;;;;5038659;28;20233;-61
2022/12/13 10:05:56;;;;;;;13.93;9.53;;;0.80;99.90;;;;;;5037202;28;20233;-61
2022/12/13 10:08:28;;;;;;;13.40;8.80;;;0.80;99.90;;;;;;5038093;28;20213;-61
2022/12/13 10:10:54;;;;;;;13.97;9.07;;;0.60;99.90;;;;;;5038297;28;20213;-61
2022/12/13 10:13:25;;;;;;;14.13;9.33;;;0.40;99.90;;;;;;5038094;28;20210;-60
2022/12/13 10:15:54;;;;;;;16.50;9.97;;;0.30;99.90;;;;;;5037284;28;20233;-60
2022/12/13 10:18:28;;;;;;;15.03;9.63;;;0.30;99.90;;;;;;5038062;28;20209;-61
2022/12/13 10:20:56;;;;;;;14.50;9.23;;;0.40;99.90;;;;;;5037870;28;20205;-61
2022/12/13 10:23:24;;;;;;;15.63;9.73;;;0.50;99.90;;;;;;5038065;28;20206;-61
2022/12/13 10:25:54;;;;;;;14.00;9.53;;;0.60;99.90;;;;;;5037387;28;20234;-62
2022/12/13 10:28:26;;;;;;;13.40;8.83;;;0.70;99.90;;;;;;5037975;28;20209;-61
2022/12/13 10:30:53;;;;;;;15.43;9.63;;;0.80;99.90;;;;;;5037920;28;20206;-61
2022/12/13 10:33:23;;;;;;;14.07;9.23;;;0.90;99.90;;;;;;5037708;28;20557;-60
2022/12/13 10:36:03;;;;;;;12.93;8.53;;;0.90;99.90;;;;;;5037105;28;20241;-61
2022/12/13 10:38:35;;;;;;;15.70;9.23;;;0.80;99.90;;;;;;5038281;28;20213;-61
2022/12/13 10:41:02;;;;;;;17.23;9.50;;;0.80;99.90;;;;;;5038118;28;20213;-61
2022/12/13 10:43:30;;;;;;;12.23;8.37;;;0.90;99.90;;;;;;5038134;28;20225;-62
2022/12/13 10:45:59;;;;;;;13.40;8.63;;;1.00;99.90;;;;;;5037262;28;20719;-61
2022/12/13 10:48:33;;;;;;;13.47;8.60;;;0.90;99.90;;;;;;5037841;28;20210;-61
2022/12/13 10:51:03;;;;;;;14.53;8.93;;;0.90;99.90;;;;;;5034632;28;20212;-61
2022/12/13 10:53:34;;;;;;;13.10;8.17;;;1.00;99.90;;;;;;5034655;28;20209;-60
2022/12/13 10:56:02;;;;;;;16.57;9.37;;;1.10;99.90;;;;;;5034226;28;20226;-60
2022/12/13 10:58:38;;;;;;;14.73;9.50;;;1.10;99.90;;;;;;5035017;28;20210;-60
2022/12/13 11:01:11;;;;;;;13.33;8.30;;;1.30;99.90;;;;;;5036026;28;20206;-63
2022/12/13 11:03:38;;;;;;;16.23;9.43;;;1.30;99.90;;;;;;5036329;28;20213;-60
2022/12/13 11:06:06;;;;;;;15.57;9.80;;;1.30;99.90;;;;;;5033897;28;20249;-60
2022/12/13 11:08:34;;;;;;;15.50;8.87;;;1.40;99.90;;;;;;5034432;28;20206;-60
2022/12/13 11:11:04;;;;;;;12.43;8.57;;;1.50;99.90;;;;;;5034722;28;20218;-60
2022/12/13 11:13:37;;;;;;;14.07;9.03;;;1.50;99.90;;;;;;5034403;28;20214;-60
2022/12/13 11:16:18;;;;;;;12.43;9.10;;;1.60;99.90;;;;;;5033517;28;20234;-62
2022/12/13 11:18:51;;;;;;;11.50;8.43;;;1.70;99.90;;;;;;5034697;28;20206;-60
2022/12/13 11:21:24;;;;;;;14.03;8.70;;;1.70;99.90;;;;;;5033966;28;20253;-60
2022/12/13 11:23:54;;;;;;;12.47;8.87;;;1.90;99.90;;;;;;5034193;28;20210;-60
2022/12/13 11:26:23;;;;;;;12.07;8.43;;;2.00;99.90;;;;;;5033359;28;20234;-60
2022/12/13 11:29:03;;;;;;;13.90;9.33;;;2.10;99.90;;;;;;5033886;28;20222;-60
2022/12/13 11:31:39;;;;;;;13.53;8.33;;;2.20;99.90;;;;;;5033687;28;20574;-60
2022/12/13 11:34:17;;;;;;;15.07;9.33;;;2.20;99.90;;;;;;5033925;28;20212;-60
2022/12/13 11:36:50;;;;;;;15.97;10.27;;;2.30;99.90;;;;;;5033683;28;20249;-60
2022/12/13 11:39:24;;;;;;;15.70;9.70;;;2.30;99.90;;;;;;5033697;28;20214;-60
2022/12/13 11:41:57;;;;;;;13.80;8.60;;;2.30;99.90;;;;;;5033653;28;20202;-61
2022/12/13 11:44:33;;;;;;;12.33;8.47;;;2.30;99.90;;;;;;5032763;28;20210;-60
2022/12/13 11:47:01;;;;;;;12.97;8.20;;;2.20;99.90;;;;;;5033547;28;20235;-60
2022/12/13 11:49:37;;;;;;;13.30;8.30;;;2.30;99.90;;;;;;5033548;28;20210;-60
2022/12/13 11:52:09;;;;;;;10.67;7.87;;;2.30;99.90;;;;;;5033577;28;20693;-61
2022/12/13 11:54:47;;;;;;;11.70;8.00;;;2.30;99.90;;;;;;5032795;28;20206;-61
2022/12/13 11:57:22;;;;;;;14.10;8.47;;;2.20;99.90;;;;;;5033563;28;20230;-60
2022/12/13 11:59:57;;;;;;;13.20;8.90;;;2.20;99.90;;;;;;5033503;28;20206;-60
2022/12/13 12:02:30;;;;;;;11.93;8.00;;;2.20;99.90;;;;;;5033000;28;20214;-61
2022/12/13 12:04:58;;;;;;;11.93;8.63;;;2.20;99.90;;;;;;5032677;28;20662;-61
2022/12/13 12:07:30;;;;;;;13.00;7.97;;;2.30;99.90;;;;;;5033213;28;20242;-61
2022/12/13 12:10:10;;;;;;;12.10;8.10;;;2.30;99.90;;;;;;5032997;28;20591;-60
2022/12/13 12:12:41;;;;;;;10.53;7.70;;;2.30;99.90;;;;;;5033015;28;20206;-62
2022/12/13 12:15:13;;;;;;;14.97;8.57;;;2.40;99.90;;;;;;5032530;28;20207;-61
2022/12/13 12:17:41;;;;;;;11.43;8.37;;;2.60;99.90;;;;;;5033042;28;20222;-60
2022/12/13 12:20:13;;;;;;;11.63;8.23;;;2.70;99.90;;;;;;5032987;28;20674;-62
2022/12/13 12:22:47;;;;;;;11.53;7.83;;;2.70;99.90;;;;;;5032829;28;20670;-61
2022/12/13 12:25:27;;;;;;;13.27;8.53;;;2.80;99.90;;;;;;5031999;28;20712;-61
2022/12/13 12:28:01;;;;;;;12.70;8.23;;;2.90;99.90;;;;;;5032624;28;20264;-63
2022/12/13 12:30:40;;;;;;;15.27;8.70;;;2.90;99.90;;;;;;5032921;28;20216;-61
2022/12/13 12:33:19;;;;;;;13.03;8.27;;;3.10;99.90;;;;;;5032528;28;20221;-62
2022/12/13 12:36:14;;;;;;;15.07;9.47;;;3.10;99.90;;;;;;5031808;28;20233;-62
2022/12/13 12:39:07;;;;;;;12.33;8.30;;;3.10;99.90;;;;;;4996656;28;20213;-60
2022/12/13 12:41:48;;;;;;;11.30;7.70;;;3.10;99.90;;;;;;5032651;28;20202;-61
2022/12/13 12:44:26;;;;;;;10.93;7.83;;;3.00;99.90;;;;;;5032422;28;20589;-61
2022/12/13 12:47:05;;;;;;;13.40;7.60;;;3.10;99.90;;;;;;5032403;28;20555;-61